Airfield :
LOGIN :

Register | Disclaimer

   EN    FR    IT 

 










Legend :    VFR   Marginal VFR   IFR   Intensive IFR   Very Intensive IFR
Visi :
Ceiling :
>= 8 km
>= 3000ft
5 to 8 km
1000 to 3000 ft
1500m to 5 km
500 to 1000 ft
800 to 1500m
200 to 500 ft
< 800m
< 200 ft
Symbols :   Thunderstorms  Fog  Heavy snow  Heavy precipitations  Wind > 20 kt
SIGMETs :     Misc.  Thunderstorms  Icing  Turbulence  Mountain Waves  Volcanic Ashes






- Airport Elevation : 183 ft


LIBA - Amendola Foggia

CURRENT METAR :
  • 311955Z 32010KT 9999 FEW050 14/12 Q1015 RMK OVC BKN080 VIS MIN 9999 WIND THR11 32006KT WIND THR29 /////KT BLU

EXPIRED METARs :
  • 311855Z 19003KT 9999 FEW050 14/12 Q1015
  • 311755Z 14005KT 9999 FEW040 14/12 Q1014 RMK BKN SCT110 BKN150 VIS MIN 9999 WIND THR11 14007KT WIND THR29 /////KT BLU

TAF TAF LIBA
Valid from the 31 at 21:00 until the 01 at 06:00 UTC


312000Z 3121/0106 32012KT 9999 FEW030 SCT050
TEMPO 3122/0102 RA FEW025 BKN050



MET'MAP, your aeronautical weather chart ! - Copyright ORBIFLY December 2007 - Disclaimer

ORBIFLY MET'MAP TEAM :

Programming & Development : Alexandra Zaïnal
Concept & original design : Baudouin d'Aumeries
Assistance for programming : Marc-Olivier Méhu
Technical & hardware support : Manuel Goepfert

Contact : metmap@orbifly.com




SOURCES & CREDITS :

   NOAA